Time;durP1;ratioP1;P1;durP2;ratioP2;P2;SDS_P1;SDS_P2;PMS_P1;PMS_P2;Temp;Humidity;BMP_temperature;BMP_pressure;BME280_temperature;BME280_humidity;BME280_pressure;Samples;Min_cycle;Max_cycle;Signal;HPM_P1;HPM_P2
2022/08/31 00:03:59;;;;;;;2.30;1.60;;;14.10;99.90;;;;;;8348184;28;20243;-67
2022/08/31 00:08:00;;;;;;;1.53;1.30;;;14.10;99.90;;;;;;8347994;28;20190;-68
2022/08/31 00:12:01;;;;;;;1.33;1.23;;;14.20;99.90;;;;;;8367155;28;20218;-68
2022/08/31 00:16:02;;;;;;;1.77;1.53;;;14.20;99.90;;;;;;8354141;28;20190;-68
2022/08/31 00:20:05;;;;;;;1.87;1.53;;;14.10;99.90;;;;;;8347797;28;20216;-68
2022/08/31 00:24:06;;;;;;;1.77;1.50;;;14.10;99.90;;;;;;8349597;28;20191;-67
2022/08/31 00:28:08;;;;;;;1.90;1.50;;;14.10;99.90;;;;;;8359235;28;20197;-67
2022/08/31 00:32:08;;;;;;;2.17;1.30;;;14.20;99.90;;;;;;8347381;28;20336;-68
2022/08/31 00:36:12;;;;;;;2.53;1.40;;;14.20;99.90;;;;;;8349051;28;20173;-67
2022/08/31 00:40:13;;;;;;;2.80;1.37;;;14.20;99.90;;;;;;8383627;28;20198;-67
2022/08/31 00:44:14;;;;;;;1.67;1.50;;;14.20;99.90;;;;;;8348266;28;20193;-67
2022/08/31 00:48:15;;;;;;;2.33;1.50;;;14.10;99.90;;;;;;8348872;28;20233;-68
2022/08/31 00:52:26;;;;;;;3.97;1.63;;;14.10;99.90;;;;;;8349194;28;20211;-67
2022/08/31 00:56:30;;;;;;;1.90;1.60;;;14.10;99.90;;;;;;8347040;28;20268;-67
2022/08/31 01:00:31;;;;;;;1.70;1.60;;;14.10;99.90;;;;;;8348482;28;20197;-76
2022/08/31 01:04:32;;;;;;;1.60;1.13;;;14.00;99.90;;;;;;8347858;28;20181;-67
2022/08/31 01:08:33;;;;;;;3.27;1.43;;;14.00;99.90;;;;;;8346365;28;20186;-67
2022/08/31 01:12:34;;;;;;;1.37;1.20;;;14.00;99.90;;;;;;8347666;28;20209;-67
2022/08/31 01:16:53;;;;;;;1.53;1.40;;;14.00;99.90;;;;;;8348230;28;20265;-67
2022/08/31 01:21:15;;;;;;;3.63;1.37;;;14.00;99.90;;;;;;8346363;28;20202;-68
2022/08/31 01:25:16;;;;;;;1.60;1.50;;;14.00;99.90;;;;;;8349018;28;20193;-68
2022/08/31 01:29:17;;;;;;;1.43;1.33;;;13.90;99.90;;;;;;8349510;28;20201;-67
2022/08/31 01:33:18;;;;;;;2.63;1.60;;;14.00;99.90;;;;;;8336794;28;20213;-67
2022/08/31 01:37:18;;;;;;;3.83;1.27;;;14.00;99.90;;;;;;8348509;28;20510;-67
2022/08/31 01:41:22;;;;;;;2.37;1.47;;;13.90;99.90;;;;;;8346598;28;20458;-67
2022/08/31 01:45:23;;;;;;;2.13;1.90;;;13.90;99.90;;;;;;8347995;28;20190;-67
2022/08/31 01:49:24;;;;;;;2.47;1.43;;;13.90;99.90;;;;;;8347016;28;20284;-68
2022/08/31 01:53:25;;;;;;;2.23;1.40;;;13.90;99.90;;;;;;8344052;28;20181;-67
2022/08/31 01:57:26;;;;;;;2.67;2.17;;;13.90;99.90;;;;;;8346888;28;20193;-68
2022/08/31 02:01:32;;;;;;;5.10;2.00;;;13.80;99.90;;;;;;8344474;28;20174;-67
2022/08/31 02:05:35;;;;;;;3.23;1.87;;;13.80;99.90;;;;;;8343904;28;20182;-67
2022/08/31 02:09:35;;;;;;;2.80;1.77;;;13.70;99.90;;;;;;8345676;28;20185;-68
2022/08/31 02:13:37;;;;;;;3.73;1.93;;;13.60;99.90;;;;;;8347089;28;20237;-67
2022/08/31 02:17:38;;;;;;;2.50;2.13;;;13.60;99.90;;;;;;8341723;28;20279;-68
2022/08/31 02:21:39;;;;;;;3.07;1.70;;;13.50;99.90;;;;;;8344979;28;20193;-68
2022/08/31 02:25:40;;;;;;;2.43;2.20;;;13.50;99.90;;;;;;8347074;28;20209;-68
2022/08/31 02:29:41;;;;;;;1.90;1.70;;;13.50;99.90;;;;;;8347824;28;20189;-68
2022/08/31 02:33:42;;;;;;;3.77;1.73;;;13.50;99.90;;;;;;8345137;28;20272;-68
2022/08/31 02:37:43;;;;;;;2.13;1.70;;;13.50;99.90;;;;;;8342226;28;20189;-67
2022/08/31 02:41:44;;;;;;;2.37;2.17;;;13.50;99.90;;;;;;8359966;28;20281;-67
2022/08/31 02:45:44;;;;;;;3.07;2.30;;;13.50;99.90;;;;;;8339296;28;20259;-68
2022/08/31 02:49:45;;;;;;;5.20;2.10;;;13.40;99.90;;;;;;8346795;28;20189;-68
2022/08/31 02:53:46;;;;;;;2.93;2.37;;;13.40;99.90;;;;;;8344455;28;20185;-68
2022/08/31 02:57:47;;;;;;;5.10;3.20;;;13.40;99.90;;;;;;8341499;28;20181;-67
2022/08/31 03:01:49;;;;;;;2.43;2.20;;;13.40;99.90;;;;;;8345340;28;20197;-68
2022/08/31 03:05:50;;;;;;;2.50;2.20;;;13.40;99.90;;;;;;8342102;28;20182;-68
2022/08/31 03:09:52;;;;;;;3.23;2.50;;;13.40;99.90;;;;;;8343515;28;20209;-67
2022/08/31 03:13:53;;;;;;;2.80;2.20;;;13.40;99.90;;;;;;8345452;28;20205;-68
2022/08/31 03:17:53;;;;;;;1.90;1.70;;;13.40;99.90;;;;;;8343134;28;20233;-67
2022/08/31 03:21:54;;;;;;;3.13;2.30;;;13.40;99.90;;;;;;8342531;28;20189;-68
2022/08/31 03:25:55;;;;;;;6.07;3.17;;;13.40;99.90;;;;;;8344136;28;20197;-68
2022/08/31 03:29:57;;;;;;;5.53;3.13;;;13.40;99.90;;;;;;8344161;28;20213;-68
2022/08/31 03:33:58;;;;;;;4.10;2.60;;;13.40;99.90;;;;;;8343066;28;20209;-67
2022/08/31 03:38:00;;;;;;;3.53;2.00;;;13.30;99.90;;;;;;8345612;28;20182;-69
2022/08/31 03:42:01;;;;;;;2.50;1.97;;;13.30;99.90;;;;;;8357752;28;20218;-68
2022/08/31 03:46:03;;;;;;;2.10;1.90;;;13.30;99.90;;;;;;8342689;28;20186;-68
2022/08/31 03:50:06;;;;;;;2.00;1.87;;;13.30;99.90;;;;;;8342961;28;20205;-68
2022/08/31 03:54:07;;;;;;;2.40;1.90;;;13.30;99.90;;;;;;8341911;28;20186;-68
2022/08/31 03:58:08;;;;;;;4.43;2.20;;;13.30;99.90;;;;;;8343014;28;20178;-68
2022/08/31 04:02:09;;;;;;;2.47;1.80;;;13.30;99.90;;;;;;8342331;28;20194;-69
2022/08/31 04:06:11;;;;;;;1.70;1.60;;;13.40;99.90;;;;;;8350916;28;20333;-68
2022/08/31 04:10:13;;;;;;;2.30;1.93;;;13.40;99.90;;;;;;8350575;28;20212;-69
2022/08/31 04:14:14;;;;;;;3.13;1.93;;;13.40;99.90;;;;;;8347711;28;20206;-68
2022/08/31 04:18:15;;;;;;;2.87;2.33;;;13.40;99.90;;;;;;8351405;28;20210;-68
2022/08/31 04:22:16;;;;;;;2.47;2.07;;;13.40;99.90;;;;;;8351159;28;20220;-68
2022/08/31 04:26:22;;;;;;;4.13;2.30;;;13.40;99.90;;;;;;8351791;28;20290;-68
2022/08/31 04:30:23;;;;;;;2.33;2.13;;;13.50;99.90;;;;;;8349196;28;20206;-68
2022/08/31 04:34:25;;;;;;;2.40;2.20;;;13.50;99.90;;;;;;8348927;28;20222;-68
2022/08/31 04:38:26;;;;;;;3.47;2.60;;;13.50;99.90;;;;;;8351099;28;20183;-68
2022/08/31 04:42:30;;;;;;;7.03;2.73;;;13.50;99.90;;;;;;8350715;28;20205;-68
2022/08/31 04:46:32;;;;;;;3.70;2.20;;;13.50;99.90;;;;;;8350921;28;20186;-68
2022/08/31 04:50:33;;;;;;;2.93;2.43;;;13.50;99.90;;;;;;8348489;28;20247;-68
2022/08/31 04:54:34;;;;;;;3.63;2.43;;;13.50;99.90;;;;;;8348297;28;20182;-68
2022/08/31 04:58:35;;;;;;;2.93;2.67;;;13.60;99.90;;;;;;8354931;28;20204;-68
2022/08/31 05:02:36;;;;;;;3.10;2.10;;;13.60;99.90;;;;;;8346504;28;20185;-68
2022/08/31 05:06:40;;;;;;;2.87;2.33;;;13.70;99.90;;;;;;8350012;28;20250;-68
2022/08/31 05:10:41;;;;;;;4.40;2.47;;;13.70;99.90;;;;;;8349190;28;20240;-68
2022/08/31 05:14:42;;;;;;;3.27;2.93;;;13.90;99.90;;;;;;8347772;28;20198;-68
2022/08/31 05:18:47;;;;;;;2.50;2.30;;;14.00;99.90;;;;;;8346457;28;20201;-68
2022/08/31 05:22:49;;;;;;;3.47;2.10;;;14.20;99.90;;;;;;8345984;28;20186;-68
2022/08/31 05:26:54;;;;;;;3.30;2.30;;;14.30;99.90;;;;;;8349253;28;20190;-69
2022/08/31 05:30:56;;;;;;;2.50;2.10;;;14.40;99.90;;;;;;8347754;28;20232;-68
2022/08/31 05:34:57;;;;;;;2.53;2.33;;;14.50;99.90;;;;;;8348427;28;20205;-68
2022/08/31 05:38:59;;;;;;;2.37;2.17;;;14.60;99.90;;;;;;8349471;28;20182;-68
2022/08/31 05:43:00;;;;;;;5.13;3.00;;;14.80;99.90;;;;;;8363045;28;20192;-68
2022/08/31 05:47:01;;;;;;;3.00;2.70;;;14.90;99.90;;;;;;8346494;28;20190;-68
2022/08/31 05:51:04;;;;;;;3.17;2.50;;;15.00;99.90;;;;;;8349647;28;20205;-68
2022/08/31 05:55:05;;;;;;;5.80;3.23;;;15.10;99.90;;;;;;8365791;28;20184;-68
2022/08/31 05:59:06;;;;;;;4.93;3.70;;;15.30;99.90;;;;;;8345010;28;20177;-70
2022/08/31 06:03:07;;;;;;;5.30;3.40;;;15.40;99.90;;;;;;8345685;28;20211;-68
2022/08/31 06:07:09;;;;;;;3.03;2.30;;;15.60;99.90;;;;;;8347775;28;20268;-69
2022/08/31 06:11:16;;;;;;;4.27;2.67;;;15.80;99.90;;;;;;8342652;28;20213;-69
2022/08/31 06:15:17;;;;;;;3.57;2.50;;;16.10;99.90;;;;;;8362854;28;20181;-69
2022/08/31 06:19:18;;;;;;;5.73;3.10;;;16.20;99.90;;;;;;8347271;28;20198;-68
2022/08/31 06:23:18;;;;;;;4.33;2.97;;;16.30;99.90;;;;;;8347063;28;20192;-68
2022/08/31 06:27:20;;;;;;;4.43;3.00;;;16.40;99.90;;;;;;8351252;28;20190;-69
2022/08/31 06:31:22;;;;;;;4.90;2.60;;;16.40;99.90;;;;;;8354064;28;20309;-68
2022/08/31 06:35:23;;;;;;;6.83;3.60;;;16.40;99.90;;;;;;8341097;28;20178;-70
2022/08/31 06:39:24;;;;;;;4.63;2.63;;;16.30;99.90;;;;;;8379825;28;20213;-69
2022/08/31 06:43:25;;;;;;;4.70;3.50;;;16.30;99.90;;;;;;8345614;28;20272;-68
2022/08/31 06:47:25;;;;;;;3.77;2.87;;;16.30;99.90;;;;;;8346268;28;20178;-69
2022/08/31 06:51:35;;;;;;;3.33;2.73;;;16.40;99.90;;;;;;8348002;28;20214;-68
2022/08/31 06:55:36;;;;;;;6.67;3.07;;;16.50;99.90;;;;;;8344508;28;20170;-69
2022/08/31 06:59:37;;;;;;;4.60;3.10;;;16.60;99.90;;;;;;8365197;28;20182;-69
2022/08/31 07:03:42;;;;;;;4.37;2.97;;;16.70;99.90;;;;;;8343199;28;20201;-68
2022/08/31 07:07:43;;;;;;;5.53;2.87;;;16.80;99.90;;;;;;8351014;28;20182;-68
2022/08/31 07:11:47;;;;;;;3.73;2.70;;;16.90;99.90;;;;;;8344557;28;20358;-69
2022/08/31 07:15:48;;;;;;;4.87;2.67;;;17.00;9.30;;;;;;8343261;28;20267;-68
2022/08/31 07:19:49;;;;;;;2.90;2.33;;;17.10;99.90;;;;;;8345114;28;20197;-69
2022/08/31 07:23:52;;;;;;;4.97;3.10;;;17.20;72.80;;;;;;8343265;28;20206;-69
2022/08/31 07:27:54;;;;;;;4.50;2.50;;;17.30;1.00;;;;;;8339387;28;20178;-69
2022/08/31 07:31:58;;;;;;;5.03;3.40;;;17.50;1.00;;;;;;8341357;28;20201;-69
2022/08/31 07:35:58;;;;;;;3.70;2.50;;;17.60;99.90;;;;;;8344901;28;20231;-69
2022/08/31 07:44:21;;;;;;;3.77;2.40;;;17.70;99.90;;;;;;8353227;28;20197;-69
2022/08/31 07:48:22;;;;;;;4.73;2.07;;;17.70;97.50;;;;;;8360833;28;20185;-69
2022/08/31 07:52:30;;;;;;;4.03;1.93;;;17.90;27.70;;;;;;8349767;28;20214;-69
2022/08/31 07:56:32;;;;;;;3.43;2.27;;;17.90;1.00;;;;;;8342446;28;20182;-68
2022/08/31 08:00:38;;;;;;;5.33;2.63;;;18.00;1.00;;;;;;8350144;28;20188;-69
2022/08/31 08:04:41;;;;;;;4.17;2.60;;;18.20;1.00;;;;;;8350591;28;20305;-69
2022/08/31 08:08:43;;;;;;;3.60;2.20;;;18.40;99.90;;;;;;8353829;28;20204;-70
2022/08/31 08:12:57;;;;;;;8.87;3.50;;;18.70;99.90;;;;;;8349855;28;20213;-69
2022/08/31 08:16:57;;;;;;;3.43;2.07;;;18.80;99.90;;;;;;8348915;28;20229;-69
2022/08/31 08:20:58;;;;;;;3.93;1.83;;;18.90;77.60;;;;;;8351142;28;20243;-69
2022/08/31 08:25:04;;;;;;;3.27;1.77;;;19.00;99.90;;;;;;8352658;28;20188;-69
2022/08/31 08:29:05;;;;;;;3.40;1.80;;;19.00;22.30;;;;;;8349384;28;20186;-69
2022/08/31 08:33:05;;;;;;;3.60;2.40;;;19.10;10.60;;;;;;8347402;28;20198;-68
2022/08/31 08:37:06;;;;;;;4.17;1.97;;;19.30;13.60;;;;;;8348615;28;20205;-71
2022/08/31 08:41:22;;;;;;;4.10;2.07;;;19.40;1.00;;;;;;8346740;28;20213;-68
2022/08/31 08:45:23;;;;;;;3.87;2.30;;;19.40;1.00;;;;;;8349319;28;20178;-68
2022/08/31 08:49:39;;;;;;;9.40;1.90;;;19.50;1.00;;;;;;8348563;28;20190;-69
2022/08/31 08:53:42;;;;;;;3.40;1.83;;;19.60;1.00;;;;;;8347314;28;20206;-69
2022/08/31 08:57:45;;;;;;;2.87;1.60;;;19.70;1.00;;;;;;8347627;28;20236;-69
2022/08/31 09:01:51;;;;;;;4.50;1.67;;;19.90;1.00;;;;;;8347142;28;20186;-69
2022/08/31 09:06:18;;;;;;;3.37;1.53;;;20.20;1.00;;;;;;8348692;28;20174;-69
2022/08/31 09:10:41;;;;;;;5.10;1.37;;;20.60;99.90;;;;;;8351439;28;20205;-69
2022/08/31 09:15:07;;;;;;;4.57;1.90;;;20.70;99.90;;;;;;8362935;28;20294;-69
2022/08/31 09:19:15;;;;;;;2.80;1.23;;;20.80;99.90;;;;;;8347942;28;20193;-69
2022/08/31 09:23:16;;;;;;;4.33;1.57;;;20.90;99.90;;;;;;8347792;28;20193;-70
2022/08/31 09:27:49;;;;;;;5.77;1.80;;;21.20;99.90;;;;;;8347933;28;20224;-69
2022/08/31 09:32:06;;;;;;;3.37;1.67;;;21.40;99.90;;;;;;8349146;28;20206;-68
2022/08/31 09:36:16;;;;;;;2.17;1.33;;;21.50;99.90;;;;;;8347175;28;20296;-69
2022/08/31 09:40:31;;;;;;;2.50;1.70;;;21.60;99.90;;;;;;8348028;28;20186;-68
2022/08/31 09:44:38;;;;;;;3.43;1.40;;;21.70;99.90;;;;;;8363306;28;20193;-70
2022/08/31 09:48:58;;;;;;;2.97;1.60;;;21.60;99.90;;;;;;8351082;28;20285;-70
2022/08/31 09:58:09;;;;;;;2.53;1.10;;;21.70;99.90;;;;;;8346685;28;20346;-68
2022/08/31 10:02:24;;;;;;;3.70;1.20;;;21.90;99.90;;;;;;8343014;28;20603;-69
2022/08/31 10:06:44;;;;;;;2.63;1.33;;;22.10;99.90;;;;;;8338713;28;20286;-69
2022/08/31 10:10:48;;;;;;;3.97;1.10;;;22.10;99.90;;;;;;8378001;28;20271;-68
2022/08/31 10:15:01;;;;;;;3.30;1.80;;;22.00;99.90;;;;;;8346210;28;20232;-69
2022/08/31 10:19:19;;;;;;;1.90;1.10;;;21.90;99.90;;;;;;8348763;28;20318;-69
2022/08/31 10:23:55;;;;;;;4.20;1.30;;;21.60;99.90;;;;;;8347309;28;20388;-72
2022/08/31 10:28:10;;;;;;;4.97;1.50;;;21.60;99.90;;;;;;8346183;28;20178;-69
2022/08/31 10:32:26;;;;;;;2.27;1.00;;;21.60;99.90;;;;;;8349840;28;20225;-69
2022/08/31 10:36:35;;;;;;;2.40;1.57;;;21.60;99.90;;;;;;8344502;28;20222;-69
2022/08/31 10:41:11;;;;;;;4.70;1.60;;;21.90;99.90;;;;;;8344887;28;20186;-70
2022/08/31 10:45:24;;;;;;;3.57;1.47;;;22.30;99.90;;;;;;8343824;28;20189;-69
2022/08/31 10:49:25;;;;;;;5.77;1.10;;;22.40;99.90;;;;;;8342601;28;20336;-69
2022/08/31 10:53:35;;;;;;;2.27;0.90;;;22.40;99.90;;;;;;8343519;28;20219;-69
2022/08/31 10:57:58;;;;;;;2.87;1.07;;;22.70;99.90;;;;;;8347427;28;20282;-69
2022/08/31 11:02:25;;;;;;;3.40;1.17;;;23.00;99.90;;;;;;8359309;28;20251;-69
2022/08/31 11:06:33;;;;;;;2.43;1.10;;;23.20;90.20;;;;;;8349223;28;20192;-68
2022/08/31 11:10:54;;;;;;;3.23;1.20;;;23.40;89.60;;;;;;8345151;28;20205;-69
2022/08/31 11:15:04;;;;;;;2.17;1.20;;;23.50;56.20;;;;;;8358110;28;20197;-69
2022/08/31 11:19:36;;;;;;;2.10;1.10;;;23.40;23.60;;;;;;8345163;28;20216;-67
2022/08/31 11:23:49;;;;;;;1.77;0.70;;;23.30;20.30;;;;;;8346345;28;20197;-69
2022/08/31 11:28:10;;;;;;;2.03;1.10;;;23.20;19.70;;;;;;8382196;28;20182;-68
2022/08/31 11:32:11;;;;;;;2.07;0.73;;;23.00;13.90;;;;;;8352842;28;20209;-69
2022/08/31 11:36:32;;;;;;;2.80;0.73;;;22.70;14.90;;;;;;8350864;28;20185;-68
2022/08/31 11:40:40;;;;;;;2.20;0.90;;;22.70;13.00;;;;;;8349582;28;20272;-67
2022/08/31 11:44:43;;;;;;;1.17;0.53;;;22.90;4.70;;;;;;8346087;28;20550;-69
2022/08/31 11:48:50;;;;;;;2.57;0.90;;;22.80;26.40;;;;;;8352192;28;20208;-68
2022/08/31 11:52:52;;;;;;;1.57;1.03;;;22.70;44.50;;;;;;8350571;28;20205;-68
2022/08/31 11:56:55;;;;;;;2.13;0.80;;;22.60;43.40;;;;;;8348404;28;20174;-69
2022/08/31 12:01:25;;;;;;;2.10;0.60;;;22.70;29.10;;;;;;8351097;28;20212;-70
2022/08/31 12:05:55;;;;;;;2.03;0.83;;;22.90;2.40;;;;;;8350939;28;20182;-69
2022/08/31 12:10:14;;;;;;;0.97;0.43;;;23.00;1.00;;;;;;8345445;28;20188;-69
2022/08/31 12:14:26;;;;;;;3.50;0.63;;;23.20;1.00;;;;;;8353448;28;20597;-69
2022/08/31 12:18:30;;;;;;;0.90;0.60;;;23.40;1.00;;;;;;8351268;28;20204;-69
2022/08/31 12:27:32;;;;;;;1.03;0.77;;;23.30;1.00;;;;;;8350242;28;20201;-70
2022/08/31 12:31:36;;;;;;;1.33;0.67;;;23.20;1.00;;;;;;8378877;28;20205;-69
2022/08/31 12:35:37;;;;;;;0.50;0.37;;;23.20;1.00;;;;;;8349266;28;20190;-70
2022/08/31 12:39:38;;;;;;;1.03;0.50;;;23.40;1.00;;;;;;8365409;28;20214;-70
2022/08/31 12:43:45;;;;;;;0.77;0.40;;;23.80;1.00;;;;;;8353093;28;20185;-69
2022/08/31 12:47:59;;;;;;;2.73;1.37;;;24.10;1.00;;;;;;8349801;28;20190;-69
2022/08/31 12:52:15;;;;;;;3.60;1.00;;;24.50;1.00;;;;;;8337910;28;20209;-69
2022/08/31 12:56:43;;;;;;;2.85;1.23;;;24.60;1.00;;;;;;8339193;28;20182;-68
2022/08/31 13:00:44;;;;;;;1.95;1.02;;;24.70;1.00;;;;;;8347421;28;20304;-69
2022/08/31 13:04:46;;;;;;;1.42;0.80;;;24.60;1.00;;;;;;8351956;28;20177;-69
2022/08/31 13:08:49;;;;;;;1.80;0.93;;;24.50;1.00;;;;;;8349892;28;20288;-70
2022/08/31 13:12:53;;;;;;;1.83;0.50;;;24.50;1.00;;;;;;8354895;28;20213;-69
2022/08/31 13:17:09;;;;;;;0.93;0.50;;;24.30;1.00;;;;;;8347443;28;20174;-71
2022/08/31 13:21:11;;;;;;;1.90;0.77;;;24.20;1.00;;;;;;8345080;28;20182;-70
2022/08/31 13:25:30;;;;;;;2.60;1.33;;;23.90;1.00;;;;;;8332381;28;20197;-67
2022/08/31 13:29:39;;;;;;;1.60;0.90;;;23.50;1.00;;;;;;8346688;28;20192;-69
2022/08/31 13:33:40;;;;;;;2.40;0.60;;;23.40;1.00;;;;;;8348114;28;20265;-67
2022/08/31 13:37:51;;;;;;;2.30;0.77;;;23.20;1.00;;;;;;8348103;28;20193;-69
2022/08/31 13:42:09;;;;;;;2.20;0.60;;;23.10;1.00;;;;;;8348252;28;20194;-70
2022/08/31 13:46:09;;;;;;;2.00;0.90;;;22.90;1.00;;;;;;8350767;28;20282;-69
2022/08/31 13:50:17;;;;;;;3.00;1.60;;;22.80;1.00;;;;;;8346456;28;20209;-70
2022/08/31 13:54:27;;;;;;;1.67;1.10;;;22.90;1.00;;;;;;8378184;28;20182;-68
2022/08/31 13:58:36;;;;;;;1.83;0.90;;;23.00;1.00;;;;;;8347245;28;20188;-68
2022/08/31 14:02:38;;;;;;;4.40;1.80;;;23.10;1.00;;;;;;8344210;28;20213;-69
2022/08/31 14:06:40;;;;;;;3.10;1.30;;;23.20;1.00;;;;;;8345251;28;20186;-69
2022/08/31 14:10:46;;;;;;;2.33;1.30;;;23.10;1.00;;;;;;8344998;28;20259;-67
2022/08/31 14:14:48;;;;;;;2.67;1.17;;;23.20;1.00;;;;;;8346919;28;20198;-68
2022/08/31 14:18:54;;;;;;;1.23;0.60;;;23.30;1.00;;;;;;8379765;28;20227;-68
2022/08/31 14:22:55;;;;;;;0.97;0.63;;;22.90;1.00;;;;;;8361901;28;20239;-69
2022/08/31 14:26:59;;;;;;;2.13;1.07;;;22.80;1.00;;;;;;8344305;28;20231;-69
2022/08/31 14:31:10;;;;;;;1.77;0.70;;;23.00;1.00;;;;;;8345583;28;20255;-68
2022/08/31 14:35:12;;;;;;;1.97;0.93;;;23.20;1.00;;;;;;8361308;28;20185;-67
2022/08/31 14:39:13;;;;;;;2.23;0.73;;;23.40;1.00;;;;;;8343938;28;20273;-69
2022/08/31 14:43:16;;;;;;;1.53;0.90;;;23.40;1.00;;;;;;8344813;28;20193;-69
2022/08/31 14:47:20;;;;;;;1.33;0.63;;;23.50;1.00;;;;;;8348196;28;20227;-68
2022/08/31 14:51:22;;;;;;;1.73;1.07;;;23.60;1.00;;;;;;8352569;28;20206;-68
2022/08/31 14:55:26;;;;;;;3.03;1.27;;;23.60;1.00;;;;;;8346783;28;20174;-69
2022/08/31 14:59:31;;;;;;;3.43;2.70;;;23.70;1.00;;;;;;8345352;28;20228;-69
2022/08/31 15:03:33;;;;;;;0.97;0.70;;;23.70;1.00;;;;;;8363301;28;20231;-68
2022/08/31 15:07:37;;;;;;;1.67;0.63;;;23.70;1.00;;;;;;8345915;28;20185;-69
2022/08/31 15:11:39;;;;;;;2.53;0.60;;;23.60;1.00;;;;;;8342045;28;20229;-69
2022/08/31 15:15:43;;;;;;;2.90;1.10;;;23.50;1.00;;;;;;8359830;28;20721;-69
2022/08/31 15:19:44;;;;;;;2.00;0.93;;;23.60;1.00;;;;;;8343040;28;20205;-68
2022/08/31 15:23:49;;;;;;;2.20;1.60;;;23.50;1.00;;;;;;8343087;28;20534;-69
2022/08/31 15:27:50;;;;;;;2.67;2.10;;;23.40;1.00;;;;;;8347883;28;20182;-69
2022/08/31 15:31:53;;;;;;;2.97;0.80;;;23.20;1.00;;;;;;8343179;28;20209;-68
2022/08/31 15:36:08;;;;;;;3.30;1.40;;;23.00;1.00;;;;;;8342054;28;20185;-68
2022/08/31 15:40:09;;;;;;;3.50;2.77;;;22.70;1.00;;;;;;8346952;28;20182;-68
2022/08/31 15:44:10;;;;;;;3.67;1.27;;;22.50;1.00;;;;;;8332734;28;20182;-69
2022/08/31 15:52:30;;;;;;;1.77;0.90;;;22.30;1.00;;;;;;8346367;28;20219;-70
2022/08/31 15:56:32;;;;;;;3.37;0.90;;;22.20;1.00;;;;;;8342066;28;20190;-68
2022/08/31 16:00:35;;;;;;;3.37;1.33;;;22.10;1.00;;;;;;8347357;28;20236;-69
2022/08/31 16:04:40;;;;;;;2.97;1.47;;;21.90;1.00;;;;;;8350454;28;20238;-68
2022/08/31 16:08:41;;;;;;;3.13;1.20;;;21.80;1.00;;;;;;8350705;28;20192;-68
2022/08/31 16:12:46;;;;;;;1.63;1.00;;;21.50;3.60;;;;;;8349249;28;20308;-68
2022/08/31 16:16:49;;;;;;;1.47;0.80;;;21.30;17.40;;;;;;8349301;28;20189;-68
2022/08/31 16:20:50;;;;;;;1.33;0.70;;;21.20;28.50;;;;;;8348952;28;20194;-68
2022/08/31 16:24:51;;;;;;;2.73;0.90;;;21.00;39.70;;;;;;8348429;28;20181;-68
2022/08/31 16:28:52;;;;;;;3.23;0.93;;;20.90;45.00;;;;;;8347165;28;20197;-70
2022/08/31 16:32:53;;;;;;;2.43;0.87;;;20.80;57.30;;;;;;8347086;28;20271;-69
2022/08/31 16:36:55;;;;;;;3.83;1.23;;;20.60;60.90;;;;;;8348392;28;20178;-69
2022/08/31 16:41:05;;;;;;;3.20;2.10;;;20.50;84.20;;;;;;8349229;28;20212;-69
2022/08/31 16:45:06;;;;;;;8.70;4.00;;;20.30;99.90;;;;;;8349309;28;20182;-69
2022/08/31 16:53:27;;;;;;;5.03;2.97;;;20.10;99.90;;;;;;8344956;28;20216;-69
2022/08/31 16:57:31;;;;;;;5.23;3.40;;;19.90;99.90;;;;;;8347278;28;20236;-70
2022/08/31 17:01:34;;;;;;;3.13;2.07;;;19.80;99.90;;;;;;8345717;28;20190;-69
2022/08/31 17:05:35;;;;;;;2.83;1.20;;;19.60;99.90;;;;;;8362107;28;20437;-69
2022/08/31 17:09:37;;;;;;;1.90;1.30;;;19.30;99.90;;;;;;8348460;28;20202;-69
2022/08/31 17:13:46;;;;;;;1.40;1.10;;;19.00;99.90;;;;;;8346622;28;20216;-69
2022/08/31 17:17:46;;;;;;;1.50;0.90;;;18.80;1.00;;;;;;8343793;28;20201;-69
2022/08/31 17:21:49;;;;;;;1.80;1.00;;;18.50;1.00;;;;;;8356852;28;20178;-69
2022/08/31 17:25:50;;;;;;;1.97;0.90;;;18.30;1.00;;;;;;8380693;28;20189;-69
2022/08/31 17:29:52;;;;;;;1.37;1.07;;;18.10;99.90;;;;;;8347707;28;20213;-70
2022/08/31 17:33:55;;;;;;;2.23;0.90;;;17.80;99.90;;;;;;8347634;28;20202;-69
2022/08/31 17:37:57;;;;;;;1.40;1.00;;;17.60;1.00;;;;;;8349254;28;20174;-69
2022/08/31 17:41:58;;;;;;;1.43;1.00;;;17.30;1.00;;;;;;8346603;28;20177;-69
2022/08/31 17:46:02;;;;;;;1.83;1.20;;;17.10;54.60;;;;;;8345207;28;20181;-69
2022/08/31 17:50:04;;;;;;;1.57;1.00;;;16.90;99.90;;;;;;8345798;28;20186;-69
2022/08/31 17:54:09;;;;;;;3.30;1.23;;;16.70;99.90;;;;;;8347381;28;20212;-72
2022/08/31 17:58:10;;;;;;;2.80;1.27;;;16.60;1.00;;;;;;8345642;28;20267;-69
2022/08/31 18:02:15;;;;;;;2.63;1.50;;;16.40;1.00;;;;;;8344022;28;20186;-69
2022/08/31 18:06:17;;;;;;;1.97;1.40;;;16.20;92.10;;;;;;8346121;28;20182;-68
2022/08/31 18:10:18;;;;;;;2.60;2.00;;;16.00;99.90;;;;;;8347458;28;20194;-69
2022/08/31 18:14:22;;;;;;;2.90;2.00;;;15.80;99.90;;;;;;8347923;28;20266;-69
2022/08/31 18:18:23;;;;;;;3.40;1.93;;;15.70;99.90;;;;;;8357855;28;20202;-69
2022/08/31 18:22:24;;;;;;;5.07;2.00;;;15.60;1.00;;;;;;8348392;28;20173;-70
2022/08/31 18:26:29;;;;;;;3.43;1.60;;;15.40;20.30;;;;;;8348607;28;20245;-69
2022/08/31 18:30:32;;;;;;;1.97;1.47;;;15.30;99.90;;;;;;8341571;28;20218;-69
2022/08/31 18:34:37;;;;;;;2.80;1.70;;;15.20;99.90;;;;;;8346019;28;20189;-69
2022/08/31 18:38:38;;;;;;;2.30;1.70;;;15.10;99.90;;;;;;8345945;28;20190;-69
2022/08/31 18:47:06;;;;;;;2.53;1.70;;;14.80;22.00;;;;;;8345958;28;20205;-69
2022/08/31 18:51:11;;;;;;;3.73;2.00;;;14.70;99.90;;;;;;8351824;28;20213;-69
2022/08/31 18:55:14;;;;;;;2.87;1.90;;;14.50;99.90;;;;;;8333359;28;20214;-69
2022/08/31 18:59:17;;;;;;;2.10;1.70;;;14.40;1.00;;;;;;8345997;28;20202;-69
2022/08/31 19:03:18;;;;;;;2.67;1.80;;;14.30;99.90;;;;;;8342615;28;20189;-69
2022/08/31 19:07:19;;;;;;;3.50;2.30;;;14.10;99.90;;;;;;8344887;28;20185;-70
2022/08/31 19:11:21;;;;;;;1.97;1.53;;;14.10;99.90;;;;;;8343332;28;20237;-70
2022/08/31 19:15:23;;;;;;;4.03;2.33;;;14.00;1.00;;;;;;8345182;28;20194;-69
2022/08/31 19:19:24;;;;;;;2.80;2.07;;;13.90;1.00;;;;;;8343910;28;20211;-69
2022/08/31 19:23:25;;;;;;;3.30;2.27;;;13.80;21.20;;;;;;8345092;28;20190;-69
2022/08/31 19:27:26;;;;;;;3.57;2.20;;;13.70;99.90;;;;;;8343119;28;20194;-70
2022/08/31 19:31:28;;;;;;;4.40;2.83;;;13.70;99.90;;;;;;8346506;28;20208;-70
2022/08/31 19:35:29;;;;;;;2.40;1.57;;;13.60;99.90;;;;;;8349330;28;20192;-69
2022/08/31 19:39:33;;;;;;;4.63;2.20;;;13.60;99.90;;;;;;8351113;28;20189;-70
2022/08/31 19:43:34;;;;;;;2.60;1.97;;;13.50;99.90;;;;;;8358388;28;20186;-69
2022/08/31 19:47:37;;;;;;;4.00;2.10;;;13.40;1.00;;;;;;8351950;28;20194;-69
2022/08/31 19:51:42;;;;;;;2.87;2.03;;;13.30;99.90;;;;;;8350802;28;20522;-69
2022/08/31 19:55:51;;;;;;;2.87;1.80;;;13.20;99.90;;;;;;8349413;28;20189;-69
2022/08/31 19:59:56;;;;;;;4.30;2.27;;;13.20;99.90;;;;;;8350734;28;20182;-69
2022/08/31 20:03:57;;;;;;;5.20;2.33;;;13.10;1.00;;;;;;8350971;28;20193;-70
2022/08/31 20:07:58;;;;;;;4.03;2.03;;;13.10;99.90;;;;;;8352962;28;20186;-71
2022/08/31 20:12:00;;;;;;;2.60;2.00;;;13.00;99.90;;;;;;8350189;28;20217;-69
2022/08/31 20:16:05;;;;;;;4.53;2.07;;;13.00;1.00;;;;;;8348714;28;20182;-69
2022/08/31 20:20:10;;;;;;;2.00;1.80;;;12.90;99.90;;;;;;8347900;28;20213;-69
2022/08/31 20:24:13;;;;;;;3.23;2.10;;;12.80;1.00;;;;;;8348365;28;20212;-67
2022/08/31 20:28:15;;;;;;;2.87;1.97;;;12.80;99.90;;;;;;8349165;28;20519;-68
2022/08/31 20:32:17;;;;;;;2.57;1.83;;;12.80;1.00;;;;;;8348018;28;20213;-67
2022/08/31 20:36:21;;;;;;;2.87;2.13;;;12.70;19.30;;;;;;8346091;28;20201;-68
2022/08/31 20:40:22;;;;;;;4.10;2.37;;;12.70;99.90;;;;;;8354303;28;20178;-68
2022/08/31 20:44:31;;;;;;;3.13;2.10;;;12.60;99.90;;;;;;8349086;28;20184;-68
2022/08/31 20:52:53;;;;;;;2.83;2.40;;;12.50;1.00;;;;;;8347822;28;20252;-68
2022/08/31 20:56:54;;;;;;;4.30;2.30;;;12.50;99.90;;;;;;8347191;28;20185;-68
2022/08/31 21:00:56;;;;;;;2.87;1.80;;;12.40;1.00;;;;;;8346078;28;20213;-68
2022/08/31 21:04:57;;;;;;;3.80;2.53;;;12.40;57.80;;;;;;8347551;28;20297;-68
2022/08/31 21:08:58;;;;;;;3.20;2.17;;;12.40;99.90;;;;;;8349009;28;20193;-68
2022/08/31 21:13:03;;;;;;;4.00;2.43;;;12.30;99.90;;;;;;8346818;28;20220;-68
2022/08/31 21:17:05;;;;;;;2.43;2.10;;;12.30;99.90;;;;;;8362779;28;20189;-68
2022/08/31 21:21:09;;;;;;;3.00;2.00;;;12.20;99.90;;;;;;8348202;28;20243;-68
2022/08/31 21:25:11;;;;;;;3.17;2.10;;;12.20;99.90;;;;;;8349265;28;20185;-68
2022/08/31 21:29:16;;;;;;;2.00;1.57;;;12.10;99.90;;;;;;8347623;28;20177;-69
2022/08/31 21:33:17;;;;;;;2.40;2.03;;;12.10;99.90;;;;;;8348023;28;20314;-68
2022/08/31 21:37:18;;;;;;;3.03;1.90;;;12.00;99.90;;;;;;8347665;28;20193;-68
2022/08/31 21:41:23;;;;;;;3.67;2.00;;;12.00;99.90;;;;;;8350877;28;20246;-68
2022/08/31 21:45:24;;;;;;;4.03;2.10;;;11.90;99.90;;;;;;8349707;28;20250;-68
2022/08/31 21:49:24;;;;;;;4.10;1.73;;;11.90;99.90;;;;;;8347823;28;20196;-68
2022/08/31 21:53:25;;;;;;;2.37;2.00;;;11.80;99.90;;;;;;8346344;28;20220;-68